createdAt,value
2022-08-12T00:01:00.898Z,99.90
2022-08-12T00:03:45.914Z,99.90
2022-08-12T00:09:17.283Z,99.90
2022-08-12T00:12:02.803Z,99.90
2022-08-12T00:14:47.857Z,99.90
2022-08-12T00:17:33.820Z,99.90
2022-08-12T00:23:06.480Z,99.90
2022-08-12T00:26:21.719Z,99.90
2022-08-12T00:29:10.311Z,99.90
2022-08-12T00:31:55.740Z,99.90
2022-08-12T00:34:43.798Z,99.90
2022-08-12T00:37:31.808Z,99.90
2022-08-12T00:40:17.399Z,99.90
2022-08-12T00:42:46.358Z,99.90
2022-08-12T00:45:14.904Z,99.90
2022-08-12T00:47:42.369Z,99.90
2022-08-12T00:50:27.093Z,99.90
2022-08-12T00:55:24.164Z,99.90
2022-08-12T00:57:51.872Z,99.90
2022-08-12T01:00:24.745Z,99.90
2022-08-12T01:02:53.264Z,99.90
2022-08-12T01:05:39.556Z,99.90
2022-08-12T01:08:27.775Z,99.90
2022-08-12T01:11:14.621Z,99.90
2022-08-12T01:13:46.379Z,99.90
2022-08-12T01:28:31.619Z,99.90
2022-08-12T01:31:01.128Z,99.90
2022-08-12T01:33:34.193Z,99.90
2022-08-12T01:36:08.550Z,99.90
2022-08-12T01:38:36.241Z,99.90
2022-08-12T01:41:03.361Z,99.90
2022-08-12T01:43:30.656Z,99.90
2022-08-12T01:46:07.758Z,99.90
2022-08-12T01:49:00.538Z,99.90
2022-08-12T01:52:21.067Z,99.90
2022-08-12T01:54:43.062Z,99.90
2022-08-12T01:57:12.760Z,99.90
2022-08-12T01:59:59.033Z,99.90
2022-08-12T02:02:32.108Z,99.90
2022-08-12T02:05:23.598Z,99.90
2022-08-12T02:08:13.718Z,99.90
2022-08-12T02:11:13.909Z,99.90
2022-08-12T02:13:50.316Z,99.90
2022-08-12T02:16:27.971Z,99.90
2022-08-12T02:19:03.270Z,99.90
2022-08-12T02:22:00.082Z,99.90
2022-08-12T02:24:33.112Z,99.90
2022-08-12T02:27:04.425Z,99.90
2022-08-12T02:29:31.274Z,99.90
2022-08-12T02:31:59.933Z,99.90
2022-08-12T02:34:27.679Z,99.90
2022-08-12T02:36:56.030Z,99.90
2022-08-12T02:39:30.431Z,99.90
2022-08-12T02:41:58.402Z,99.90
2022-08-12T02:44:26.274Z,99.90
2022-08-12T02:46:55.114Z,99.90
2022-08-12T02:49:32.741Z,99.90
2022-08-12T02:52:00.219Z,99.90
2022-08-12T02:54:27.759Z,99.90
2022-08-12T02:56:54.805Z,99.90
2022-08-12T02:59:22.677Z,99.90
2022-08-12T03:01:50.901Z,99.90
2022-08-12T03:04:42.948Z,99.90
2022-08-12T03:07:33.562Z,99.90
2022-08-12T03:10:15.967Z,99.90
2022-08-12T03:12:49.153Z,99.90
2022-08-12T03:15:18.784Z,99.90
2022-08-12T03:20:41.060Z,99.90
2022-08-12T03:23:09.850Z,99.90
2022-08-12T03:25:44.187Z,99.90
2022-08-12T03:28:23.829Z,99.90
2022-08-12T03:30:56.206Z,99.90
2022-08-12T03:33:24.350Z,99.90
2022-08-12T03:35:54.469Z,99.90
2022-08-12T03:38:23.418Z,99.90
2022-08-12T03:41:22.995Z,99.90
2022-08-12T03:44:23.083Z,99.90
2022-08-12T03:47:40.643Z,99.90
2022-08-12T03:50:26.500Z,99.90
2022-08-12T03:53:13.468Z,99.90
2022-08-12T03:55:58.633Z,99.90
2022-08-12T03:58:44.055Z,99.90
2022-08-12T04:01:11.785Z,99.90
2022-08-12T04:03:54.729Z,99.90
2022-08-12T04:06:35.851Z,99.90
2022-08-12T04:09:14.674Z,99.90
2022-08-12T04:12:02.713Z,99.90
2022-08-12T04:14:29.496Z,99.90
2022-08-12T04:16:56.765Z,99.90
2022-08-12T04:19:25.581Z,99.90
2022-08-12T04:22:02.135Z,99.90
2022-08-12T04:24:31.947Z,99.90
2022-08-12T04:26:59.183Z,99.90
2022-08-12T04:30:16.726Z,99.90
2022-08-12T04:32:16.252Z,99.90
2022-08-12T04:34:45.114Z,99.90
2022-08-12T04:37:15.344Z,99.90
2022-08-12T04:39:46.070Z,99.90
2022-08-12T04:42:14.440Z,99.90
2022-08-12T04:44:42.541Z,99.90
2022-08-12T04:47:16.151Z,99.90
2022-08-12T04:49:43.875Z,99.90
2022-08-12T04:52:12.330Z,99.90
2022-08-12T04:54:44.329Z,99.90
2022-08-12T04:57:13.276Z,99.90
2022-08-12T04:59:47.936Z,99.90
2022-08-12T05:02:22.833Z,99.90
2022-08-12T05:04:51.095Z,99.90
2022-08-12T05:07:17.987Z,99.90
2022-08-12T05:10:00.179Z,99.90
2022-08-12T05:12:32.483Z,99.90
2022-08-12T05:15:01.132Z,99.90
2022-08-12T05:17:28.521Z,99.90
2022-08-12T05:19:57.475Z,99.90
2022-08-12T05:22:27.933Z,99.90
2022-08-12T05:24:54.534Z,99.90
2022-08-12T05:27:22.493Z,99.90
2022-08-12T05:30:08.313Z,99.90
2022-08-12T05:32:37.400Z,99.90
2022-08-12T05:35:09.074Z,99.90
2022-08-12T05:42:37.829Z,99.90
2022-08-12T05:47:52.744Z,99.90
2022-08-12T05:50:19.683Z,99.90
2022-08-12T05:52:46.317Z,99.90
2022-08-12T05:55:15.106Z,99.90
2022-08-12T05:57:41.845Z,99.90
2022-08-12T06:00:09.209Z,99.90
2022-08-12T06:02:50.602Z,99.90
2022-08-12T06:05:18.723Z,99.90
2022-08-12T06:10:33.152Z,99.90
2022-08-12T06:13:28.035Z,99.90
2022-08-12T06:15:57.986Z,99.90
2022-08-12T06:18:38.744Z,99.90
2022-08-12T06:23:42.621Z,99.90
2022-08-12T06:26:12.868Z,99.90
2022-08-12T06:28:40.041Z,99.90
2022-08-12T06:56:02.564Z,99.90
2022-08-12T07:28:18.272Z,99.90
2022-08-12T07:30:45.752Z,99.90
2022-08-12T07:33:13.057Z,99.90
2022-08-12T07:40:42.240Z,99.90
2022-08-12T07:50:30.167Z,99.90
2022-08-12T07:57:58.679Z,98.60
2022-08-12T08:00:26.372Z,98.50
2022-08-12T08:05:22.593Z,97.40
2022-08-12T08:10:16.755Z,96.20
2022-08-12T08:12:58.585Z,99.90
2022-08-12T08:15:51.087Z,99.80
2022-08-12T08:18:26.826Z,99.40
2022-08-12T08:20:55.120Z,94.50
2022-08-12T08:23:21.852Z,95.20
2022-08-12T08:28:23.234Z,93.70
2022-08-12T08:30:51.149Z,93.10
2022-08-12T08:33:24.645Z,92.40
2022-08-12T08:38:34.896Z,91.60
2022-08-12T08:42:17.697Z,99.90
2022-08-12T08:44:11.875Z,90.40
2022-08-12T08:46:39.602Z,90.60
2022-08-12T08:54:06.939Z,90.80
2022-08-12T09:17:13.971Z,89.60
2022-08-12T09:19:57.305Z,83.50
2022-08-12T09:22:29.356Z,80.70
2022-08-12T09:28:03.881Z,95.60
2022-08-12T09:30:16.979Z,98.30
2022-08-12T09:33:04.041Z,94.40
2022-08-12T09:35:42.802Z,94.00
2022-08-12T09:38:28.300Z,94.20
2022-08-12T10:02:53.158Z,98.20
2022-08-12T10:05:00.529Z,99.60
2022-08-12T10:07:40.643Z,98.70
2022-08-12T10:10:22.766Z,99.00
2022-08-12T10:18:35.194Z,97.00
2022-08-12T10:21:07.274Z,99.90
2022-08-12T10:34:53.747Z,95.80
2022-08-12T10:38:33.853Z,89.10
2022-08-12T10:51:02.480Z,93.20
2022-08-12T10:53:45.196Z,93.90
2022-08-12T11:25:11.243Z,72.70
2022-08-12T11:27:38.387Z,58.70
2022-08-12T11:30:31.383Z,86.50
2022-08-12T11:37:59.433Z,91.10
2022-08-12T11:40:26.446Z,92.90
2022-08-12T11:45:27.659Z,74.00
2022-08-12T11:58:40.522Z,70.40
2022-08-12T12:03:44.194Z,83.30
2022-08-12T12:06:17.186Z,76.20
2022-08-12T12:14:08.270Z,82.30
2022-08-12T12:16:30.833Z,82.20
2022-08-12T12:19:00.253Z,88.40
2022-08-12T12:21:48.129Z,89.20
2022-08-12T12:24:13.602Z,85.70
2022-08-12T12:27:00.160Z,91.70
2022-08-12T12:30:19.921Z,90.80
2022-08-12T12:53:02.426Z,80.50
2022-08-12T12:55:35.471Z,89.70
2022-08-12T12:58:04.916Z,84.40
2022-08-12T13:00:34.501Z,83.00
2022-08-12T13:18:12.284Z,77.00
2022-08-12T13:20:46.111Z,90.70
2022-08-12T13:23:36.814Z,80.40
2022-08-12T13:26:01.561Z,73.70
2022-08-12T13:28:30.078Z,56.50
2022-08-12T13:30:57.674Z,57.40
2022-08-12T13:33:28.579Z,54.80
2022-08-12T13:36:06.426Z,53.00
2022-08-12T13:38:40.100Z,53.40
2022-08-12T13:41:11.590Z,77.70
2022-08-12T13:43:41.212Z,57.50
2022-08-12T13:46:12.089Z,63.50
2022-08-12T13:56:24.441Z,79.40
2022-08-12T15:14:16.070Z,80.20
2022-08-12T15:16:51.762Z,65.80
2022-08-12T15:20:09.201Z,67.70
2022-08-12T15:22:39.647Z,72.00
2022-08-12T15:27:22.129Z,48.30
2022-08-12T15:29:52.308Z,51.20
2022-08-12T15:32:31.709Z,63.10
2022-08-12T15:35:00.662Z,52.40
2022-08-12T15:38:09.028Z,88.20
2022-08-12T15:40:14.751Z,66.70
2022-08-12T15:42:57.849Z,71.30
2022-08-12T15:45:26.293Z,85.10
2022-08-12T15:48:04.494Z,82.00
2022-08-12T15:50:45.413Z,79.80
2022-08-12T15:55:46.101Z,77.20
2022-08-12T16:00:43.718Z,82.80
2022-08-12T16:03:14.215Z,75.00
2022-08-12T16:06:19.016Z,77.30
2022-08-12T16:08:42.404Z,77.60
2022-08-12T16:11:14.918Z,83.40
2022-08-12T16:13:44.468Z,76.20
2022-08-12T16:16:23.171Z,78.50
2022-08-12T16:18:59.657Z,73.90
2022-08-12T16:21:51.328Z,74.70
2022-08-12T16:26:50.951Z,85.80
2022-08-12T16:29:18.330Z,82.30
2022-08-12T16:31:45.114Z,80.70
2022-08-12T16:34:26.194Z,83.80
2022-08-12T16:37:04.620Z,79.80
2022-08-12T16:49:49.885Z,54.10
2022-08-12T16:54:47.784Z,55.40
2022-08-12T16:57:14.463Z,56.20
2022-08-12T17:07:26.362Z,57.80
2022-08-12T17:09:54.687Z,58.40
2022-08-12T17:12:21.647Z,59.80
2022-08-12T17:14:53.064Z,63.20
2022-08-12T17:17:35.254Z,61.80
2022-08-12T17:20:34.828Z,61.90
2022-08-12T17:23:14.103Z,62.00
2022-08-12T17:25:48.439Z,62.30
2022-08-12T17:30:43.895Z,59.00
2022-08-12T17:33:17.223Z,60.50
2022-08-12T17:35:52.013Z,75.70
2022-08-12T17:40:47.912Z,59.00
2022-08-12T17:43:56.088Z,59.50
2022-08-12T17:48:34.445Z,59.20
2022-08-12T17:51:04.712Z,68.90
2022-08-12T17:58:51.222Z,60.00
2022-08-12T18:12:03.600Z,60.10
2022-08-12T18:14:37.033Z,75.10
2022-08-12T18:17:08.302Z,84.60
2022-08-12T18:20:05.481Z,88.70
2022-08-12T18:22:30.548Z,63.40
2022-08-12T18:26:12.297Z,64.20
2022-08-12T18:28:16.667Z,64.60
2022-08-12T18:30:53.106Z,65.30
2022-08-12T18:33:43.809Z,66.00
2022-08-12T18:38:40.350Z,66.60
2022-08-12T18:41:33.592Z,67.20
2022-08-12T18:44:07.922Z,69.80
2022-08-12T18:46:54.493Z,90.90
2022-08-12T18:54:41.376Z,68.30
2022-08-12T19:18:01.123Z,69.10
2022-08-12T19:20:35.041Z,71.00
2022-08-12T19:23:07.180Z,71.20
2022-08-12T19:25:59.395Z,71.70
2022-08-12T19:28:30.014Z,71.30
2022-08-12T19:31:56.063Z,71.00
2022-08-12T19:34:56.020Z,71.80
2022-08-12T19:37:08.599Z,72.40
2022-08-12T19:42:22.906Z,72.10
2022-08-12T19:44:55.230Z,72.60
2022-08-12T19:47:22.569Z,73.00
2022-08-12T19:52:21.159Z,72.40
2022-08-12T19:54:56.298Z,73.50
2022-08-12T19:57:23.337Z,73.70
2022-08-12T20:00:03.502Z,74.00
2022-08-12T20:02:33.863Z,74.10
2022-08-12T20:06:06.638Z,75.00
2022-08-12T20:07:59.267Z,75.40
2022-08-12T20:10:35.413Z,75.40
2022-08-12T20:13:18.742Z,76.00
2022-08-12T20:15:51.117Z,76.80
2022-08-12T20:18:53.307Z,77.60
2022-08-12T20:21:16.140Z,77.90
2022-08-12T20:23:50.702Z,79.80
2022-08-12T20:28:55.444Z,83.70
2022-08-12T20:31:22.054Z,84.10
2022-08-12T20:33:55.918Z,86.20
2022-08-12T20:36:41.117Z,86.50
2022-08-12T20:39:37.356Z,87.80
2022-08-12T20:41:58.521Z,87.90
2022-08-12T20:44:28.678Z,85.90
2022-08-12T20:47:20.026Z,84.70
2022-08-12T20:52:25.287Z,87.30
2022-08-12T20:54:52.037Z,87.90
2022-08-12T20:57:22.083Z,87.60
2022-08-12T20:59:50.339Z,90.10
2022-08-12T21:02:24.673Z,90.50
2022-08-12T21:05:19.676Z,89.40
2022-08-12T21:07:51.807Z,88.90
2022-08-12T21:10:20.602Z,88.80
2022-08-12T21:12:48.333Z,89.90
2022-08-12T21:15:22.951Z,89.60
2022-08-12T21:18:01.227Z,90.00
2022-08-12T21:23:04.478Z,90.40
2022-08-12T21:25:44.776Z,90.50
2022-08-12T21:28:13.328Z,90.80
2022-08-12T21:30:54.804Z,90.40
2022-08-12T22:11:44.099Z,94.10
2022-08-12T22:19:22.854Z,95.40
2022-08-12T22:21:54.653Z,95.90
2022-08-12T22:24:26.936Z,95.80
2022-08-12T22:26:56.600Z,96.30
2022-08-12T22:29:42.524Z,97.60
2022-08-12T22:32:11.419Z,97.20
2022-08-12T23:11:08.451Z,99.90
2022-08-12T23:16:31.505Z,99.90
2022-08-12T23:19:09.483Z,99.90
2022-08-12T23:22:05.238Z,99.90
2022-08-12T23:24:30.502Z,99.90
2022-08-12T23:27:16.325Z,99.90
2022-08-12T23:30:17.898Z,99.90
2022-08-12T23:32:36.400Z,99.90
2022-08-12T23:35:04.474Z,99.90
2022-08-12T23:37:47.863Z,99.90
2022-08-12T23:40:22.211Z,99.90
2022-08-12T23:42:50.809Z,99.90
2022-08-12T23:45:20.715Z,99.90
2022-08-12T23:47:58.480Z,99.90
2022-08-12T23:50:26.272Z,99.90
2022-08-12T23:53:02.587Z,99.90
2022-08-12T23:55:40.698Z,99.90
2022-08-12T23:58:21.727Z,99.90
